Terminal Aerodrome Forecast
Issued by NWS

Home | Current Version | Previous Version | Text Only | Print | Product List | Glossary Off
Versions: 1 2 3 4 5 6 7 8 9 10 11 12 13

000
FTUS43 KOAX 301122
TAFCDR
TAF
KCDR 301122Z 3012/0112 25006KT P6SM SKC
     FM301900 33008KT P6SM SCT100
     FM302200 03010KT P6SM VCTS SCT070CB BKN100=

USA.gov is the U.S. government's official web portal to all federal, state and local government web resources and services.